createdAt,value
2022-08-17T00:01:52.853Z,22.30
2022-08-17T00:04:23.098Z,19.13
2022-08-17T00:06:53.428Z,22.27
2022-08-17T00:09:22.821Z,22.13
2022-08-17T00:12:41.113Z,20.10
2022-08-17T00:14:41.887Z,22.23
2022-08-17T00:17:11.266Z,22.42
2022-08-17T00:19:40.635Z,20.58
2022-08-17T00:22:31.637Z,25.55
2022-08-17T00:24:59.432Z,21.70
2022-08-17T00:27:28.862Z,21.88
2022-08-17T00:29:58.165Z,23.38
2022-08-17T00:33:13.639Z,22.85
2022-08-17T00:35:20.372Z,25.65
2022-08-17T00:37:49.725Z,26.02
2022-08-17T00:40:19.639Z,21.50
2022-08-17T00:42:50.596Z,20.15
2022-08-17T00:45:21.198Z,21.35
2022-08-17T00:47:50.907Z,24.38
2022-08-17T00:50:21.847Z,22.15
2022-08-17T00:52:57.112Z,23.65
2022-08-17T00:55:28.563Z,20.00
2022-08-17T00:58:01.194Z,21.85
2022-08-17T01:00:35.633Z,20.98
2022-08-17T01:03:16.829Z,25.42
2022-08-17T01:05:46.301Z,23.50
2022-08-17T01:08:19.736Z,25.75
2022-08-17T01:10:59.138Z,21.92
2022-08-17T01:13:40.738Z,27.10
2022-08-17T01:16:18.670Z,24.65
2022-08-17T01:18:52.093Z,22.77
2022-08-17T01:21:25.389Z,23.73
2022-08-17T01:23:54.744Z,26.90
2022-08-17T01:26:24.645Z,24.20
2022-08-17T01:28:56.001Z,22.05
2022-08-17T01:31:28.250Z,21.08
2022-08-17T01:33:58.674Z,23.70
2022-08-17T01:36:31.189Z,23.25
2022-08-17T01:39:00.855Z,23.50
2022-08-17T01:41:31.231Z,23.98
2022-08-17T01:44:05.788Z,22.95
2022-08-17T01:46:38.416Z,24.88
2022-08-17T01:49:14.426Z,21.73
2022-08-17T01:51:43.756Z,23.13
2022-08-17T01:54:17.714Z,29.83
2022-08-17T01:56:53.774Z,24.23
2022-08-17T01:59:23.537Z,27.23
2022-08-17T02:01:53.353Z,26.45
2022-08-17T02:04:22.936Z,24.85
2022-08-17T02:06:53.178Z,25.17
2022-08-17T02:09:29.986Z,25.20
2022-08-17T02:12:38.324Z,26.80
2022-08-17T02:14:53.325Z,25.42
2022-08-17T02:17:22.688Z,22.80
2022-08-17T02:19:52.009Z,23.77
2022-08-17T02:22:21.585Z,24.17
2022-08-17T02:24:58.428Z,24.63
2022-08-17T02:27:28.661Z,21.67
2022-08-17T02:29:58.075Z,27.65
2022-08-17T02:32:28.870Z,24.13
2022-08-17T02:35:02.223Z,22.58
2022-08-17T02:37:32.542Z,24.48
2022-08-17T02:40:02.563Z,24.83
2022-08-17T02:42:35.351Z,25.10
2022-08-17T02:45:07.073Z,25.30
2022-08-17T02:47:37.610Z,28.20
2022-08-17T02:50:09.557Z,24.67
2022-08-17T02:52:44.160Z,24.63
2022-08-17T02:55:26.975Z,26.40
2022-08-17T02:57:56.756Z,24.00
2022-08-17T03:00:34.021Z,24.45
2022-08-17T03:03:05.145Z,25.27
2022-08-17T03:05:37.872Z,22.35
2022-08-17T03:08:12.940Z,21.95
2022-08-17T03:10:42.963Z,29.05
2022-08-17T03:13:14.408Z,22.67
2022-08-17T03:15:45.734Z,23.88
2022-08-17T03:18:19.260Z,22.60
2022-08-17T03:20:54.218Z,23.00
2022-08-17T03:23:25.586Z,23.25
2022-08-17T03:25:56.285Z,24.67
2022-08-17T03:28:26.271Z,24.70
2022-08-17T03:30:55.808Z,24.02
2022-08-17T03:33:25.649Z,23.20
2022-08-17T03:35:55.288Z,21.88
2022-08-17T03:38:24.864Z,21.17
2022-08-17T03:40:59.787Z,24.55
2022-08-17T03:43:35.149Z,22.50
2022-08-17T03:46:32.451Z,22.65
2022-08-17T03:49:20.867Z,22.02
2022-08-17T03:52:02.855Z,18.75
2022-08-17T03:54:44.696Z,22.40
2022-08-17T03:57:14.848Z,23.02
2022-08-17T03:59:44.946Z,23.45
2022-08-17T04:02:21.449Z,20.58
2022-08-17T04:04:52.852Z,19.92
2022-08-17T04:07:27.867Z,19.23
2022-08-17T04:09:58.183Z,21.60
2022-08-17T04:12:30.983Z,24.02
2022-08-17T04:15:00.811Z,25.63
2022-08-17T04:17:31.986Z,19.67
2022-08-17T04:20:01.399Z,21.63
2022-08-17T04:22:34.210Z,22.55
2022-08-17T04:25:19.312Z,23.20
2022-08-17T04:27:48.791Z,23.13
2022-08-17T04:30:18.926Z,22.80
2022-08-17T04:33:06.470Z,21.17
2022-08-17T04:35:40.849Z,21.70
2022-08-17T04:38:12.856Z,25.27
2022-08-17T04:40:55.031Z,24.73
2022-08-17T04:43:27.454Z,23.30
2022-08-17T04:46:02.516Z,22.63
2022-08-17T04:48:37.212Z,25.67
2022-08-17T04:51:16.988Z,24.23
2022-08-17T04:53:54.187Z,25.13
2022-08-17T04:56:25.952Z,21.88
2022-08-17T04:58:58.512Z,24.38
2022-08-17T05:01:31.245Z,23.73
2022-08-17T05:04:32.802Z,26.13
2022-08-17T05:07:01.451Z,22.60
2022-08-17T05:09:31.049Z,21.95
2022-08-17T05:12:04.092Z,21.40
2022-08-17T05:14:34.018Z,20.83
2022-08-17T05:17:07.034Z,20.40
2022-08-17T05:19:41.175Z,20.05
2022-08-17T05:22:10.619Z,18.35
2022-08-17T05:24:43.490Z,20.95
2022-08-17T05:27:23.481Z,20.30
2022-08-17T05:29:52.924Z,24.33
2022-08-17T05:32:38.185Z,21.17
2022-08-17T05:35:10.232Z,23.73
2022-08-17T05:37:42.405Z,23.52
2022-08-17T05:40:12.356Z,20.00
2022-08-17T05:42:44.144Z,30.15
2022-08-17T05:45:46.075Z,27.10
2022-08-17T05:48:07.911Z,25.02
2022-08-17T05:50:51.039Z,27.33
2022-08-17T05:53:51.077Z,27.40
2022-08-17T05:56:43.427Z,33.70
2022-08-17T05:59:26.689Z,28.20
2022-08-17T06:02:07.108Z,28.42
2022-08-17T06:05:02.521Z,30.10
2022-08-17T06:07:42.759Z,28.45
2022-08-17T06:11:05.579Z,32.53
2022-08-17T06:14:12.412Z,31.83
2022-08-17T06:16:49.085Z,30.40
2022-08-17T06:19:25.638Z,31.13
2022-08-17T06:21:57.513Z,40.65
2022-08-17T06:24:42.024Z,29.80
2022-08-17T06:27:33.211Z,36.60
2022-08-17T06:30:22.508Z,32.40
2022-08-17T06:32:53.690Z,35.92
2022-08-17T06:35:42.389Z,37.92
2022-08-17T06:38:38.221Z,38.08
2022-08-17T06:41:37.825Z,32.88
2022-08-17T06:44:43.132Z,37.25
2022-08-17T06:47:31.625Z,36.47
2022-08-17T06:50:11.772Z,35.30
2022-08-17T06:53:04.039Z,33.00
2022-08-17T06:56:09.600Z,29.77
2022-08-17T06:58:43.446Z,30.90
2022-08-17T07:01:18.025Z,31.45
2022-08-17T07:03:54.665Z,32.58
2022-08-17T07:06:30.559Z,27.50
2022-08-17T07:09:17.420Z,23.27
2022-08-17T07:12:02.612Z,22.73
2022-08-17T07:14:41.062Z,22.77
2022-08-17T07:17:17.361Z,27.48
2022-08-17T07:19:50.154Z,29.70
2022-08-17T07:22:25.553Z,23.27
2022-08-17T07:24:59.765Z,24.52
2022-08-17T07:27:40.867Z,25.65
2022-08-17T07:30:20.048Z,26.40
2022-08-17T07:33:20.263Z,23.65
2022-08-17T07:35:50.294Z,26.48
2022-08-17T07:38:25.282Z,24.48
2022-08-17T07:41:02.145Z,23.15
2022-08-17T07:43:52.430Z,24.30
2022-08-17T07:47:02.093Z,25.60
2022-08-17T07:49:34.170Z,26.23
2022-08-17T07:52:48.495Z,31.35
2022-08-17T07:55:29.456Z,26.67
2022-08-17T07:58:02.078Z,28.05
2022-08-17T08:00:33.660Z,26.25
2022-08-17T08:03:34.689Z,26.33
2022-08-17T08:06:05.392Z,30.05
2022-08-17T08:08:45.029Z,26.17
2022-08-17T08:11:30.777Z,25.63
2022-08-17T08:14:28.214Z,31.85
2022-08-17T08:17:01.999Z,27.15
2022-08-17T08:19:33.386Z,26.63
2022-08-17T08:22:13.100Z,26.08
2022-08-17T08:25:07.316Z,34.78
2022-08-17T08:27:45.804Z,28.40
2022-08-17T08:30:21.966Z,36.70
2022-08-17T08:33:17.318Z,31.05
2022-08-17T08:35:58.571Z,31.73
2022-08-17T08:38:54.961Z,28.27
2022-08-17T08:41:44.917Z,26.95
2022-08-17T08:44:59.702Z,32.60
2022-08-17T08:47:55.525Z,29.13
2022-08-17T08:50:38.265Z,29.73
2022-08-17T08:53:39.055Z,32.72
2022-08-17T08:56:36.670Z,33.85
2022-08-17T08:59:14.518Z,31.73
2022-08-17T09:02:05.099Z,33.47
2022-08-17T09:05:14.181Z,34.83
2022-08-17T09:08:12.963Z,36.90
2022-08-17T09:10:51.386Z,41.20
2022-08-17T09:13:29.736Z,31.33
2022-08-17T09:16:09.506Z,34.47
2022-08-17T09:19:01.044Z,29.10
2022-08-17T09:21:49.254Z,28.65
2022-08-17T09:24:34.619Z,29.02
2022-08-17T09:27:11.121Z,31.35
2022-08-17T09:29:46.004Z,26.77
2022-08-17T09:32:31.355Z,28.98
2022-08-17T09:35:08.083Z,31.35
2022-08-17T09:37:57.323Z,28.67
2022-08-17T09:40:42.144Z,26.98
2022-08-17T09:43:43.169Z,30.48
2022-08-17T09:46:25.191Z,27.48
2022-08-17T09:49:25.042Z,27.55
2022-08-17T09:52:01.181Z,26.52
2022-08-17T09:54:39.876Z,30.27
2022-08-17T09:57:29.173Z,29.20
2022-08-17T10:00:13.532Z,30.90
2022-08-17T10:03:01.627Z,29.75
2022-08-17T10:05:30.887Z,31.35
2022-08-17T10:08:09.736Z,29.15
2022-08-17T10:10:56.461Z,31.40
2022-08-17T10:14:02.281Z,33.25
2022-08-17T10:17:01.983Z,29.25
2022-08-17T10:19:44.281Z,33.72
2022-08-17T10:22:43.949Z,27.65
2022-08-17T10:25:42.937Z,31.27
2022-08-17T10:28:29.375Z,31.65
2022-08-17T10:34:20.037Z,28.88
2022-08-17T10:37:10.935Z,27.73
2022-08-17T10:39:58.548Z,29.70
2022-08-17T10:42:33.893Z,30.98
2022-08-17T10:45:44.270Z,32.33
2022-08-17T10:48:16.716Z,32.58
2022-08-17T10:50:49.717Z,31.55
2022-08-17T10:53:34.590Z,30.05
2022-08-17T10:56:17.529Z,33.50
2022-08-17T10:58:59.331Z,36.85
2022-08-17T11:01:31.661Z,34.88
2022-08-17T11:04:19.726Z,34.25
2022-08-17T11:07:08.794Z,31.98
2022-08-17T11:10:16.396Z,32.75
2022-08-17T11:12:48.934Z,31.25
2022-08-17T11:15:24.733Z,32.05
2022-08-17T11:18:16.016Z,36.80
2022-08-17T11:21:11.117Z,38.92
2022-08-17T11:24:10.600Z,34.47
2022-08-17T11:26:46.795Z,39.03
2022-08-17T11:29:59.517Z,33.03
2022-08-17T11:32:54.385Z,37.75
2022-08-17T11:35:24.551Z,34.35
2022-08-17T11:38:25.382Z,37.30
2022-08-17T11:41:13.117Z,33.75
2022-08-17T11:44:03.504Z,37.17
2022-08-17T11:47:20.094Z,34.03
2022-08-17T11:50:12.424Z,31.95
2022-08-17T11:52:48.533Z,36.08
2022-08-17T11:55:37.545Z,31.23
2022-08-17T11:58:28.475Z,31.80
2022-08-17T12:00:58.417Z,36.10
2022-08-17T12:03:34.063Z,34.08
2022-08-17T12:06:08.384Z,34.63
2022-08-17T12:08:43.781Z,32.15
2022-08-17T12:12:11.175Z,33.58
2022-08-17T12:15:07.884Z,35.45
2022-08-17T12:17:50.608Z,35.13
2022-08-17T12:20:37.596Z,34.17
2022-08-17T12:23:54.997Z,37.45
2022-08-17T12:26:30.336Z,39.10
2022-08-17T12:29:09.242Z,38.05
2022-08-17T12:31:51.169Z,36.22
2022-08-17T12:34:28.431Z,46.03
2022-08-17T12:37:04.029Z,39.33
2022-08-17T12:39:34.266Z,40.33
2022-08-17T12:42:04.704Z,44.05
2022-08-17T12:44:50.073Z,47.25
2022-08-17T12:47:23.149Z,45.88
2022-08-17T12:49:57.884Z,40.28
2022-08-17T12:52:33.587Z,41.97
2022-08-17T12:55:16.991Z,44.55
2022-08-17T12:57:51.329Z,42.45
2022-08-17T13:00:47.489Z,43.65
2022-08-17T13:03:24.667Z,43.15
2022-08-17T13:06:04.469Z,39.38
2022-08-17T13:08:43.845Z,43.33
2022-08-17T13:11:24.159Z,43.03
2022-08-17T13:13:57.132Z,42.58
2022-08-17T13:16:29.895Z,44.42
2022-08-17T13:19:20.293Z,44.83
2022-08-17T13:22:14.412Z,41.90
2022-08-17T13:24:55.718Z,42.17
2022-08-17T13:27:28.674Z,43.43
2022-08-17T13:30:01.805Z,38.75
2022-08-17T13:32:39.948Z,42.72
2022-08-17T13:35:50.097Z,50.53
2022-08-17T13:38:51.008Z,44.08
2022-08-17T13:41:38.939Z,50.08
2022-08-17T13:44:36.867Z,44.63
2022-08-17T13:47:17.112Z,46.05
2022-08-17T13:49:48.785Z,48.88
2022-08-17T13:52:43.751Z,50.15
2022-08-17T13:55:23.555Z,44.33
2022-08-17T13:58:06.878Z,48.53
2022-08-17T14:00:39.553Z,43.25
2022-08-17T14:05:38.358Z,40.38
2022-08-17T14:08:08.465Z,43.42
2022-08-17T14:10:38.063Z,40.17
2022-08-17T14:13:08.576Z,38.65
2022-08-17T14:15:56.021Z,39.00
2022-08-17T14:18:55.549Z,39.97
2022-08-17T14:21:16.261Z,42.95
2022-08-17T14:23:54.468Z,39.50
2022-08-17T14:26:24.792Z,42.03
2022-08-17T14:28:56.564Z,40.88
2022-08-17T14:31:27.663Z,36.88
2022-08-17T14:33:58.986Z,40.50
2022-08-17T14:36:28.368Z,38.67
2022-08-17T14:38:57.677Z,36.47
2022-08-17T14:41:27.426Z,38.38
2022-08-17T14:43:56.760Z,37.05
2022-08-17T14:46:26.488Z,38.25
2022-08-17T14:48:57.469Z,37.17
2022-08-17T14:51:27.659Z,39.67
2022-08-17T14:53:57.550Z,36.20
2022-08-17T14:56:28.324Z,34.05
2022-08-17T14:59:05.008Z,38.10
2022-08-17T15:01:36.920Z,38.85
2022-08-17T15:06:35.663Z,38.28
2022-08-17T15:09:05.041Z,39.33
2022-08-17T15:11:35.504Z,37.30
2022-08-17T15:14:04.924Z,34.88
2022-08-17T15:16:36.063Z,34.72
2022-08-17T15:19:07.201Z,37.33
2022-08-17T15:21:38.508Z,41.23
2022-08-17T15:24:08.825Z,36.83
2022-08-17T15:26:39.128Z,37.05
2022-08-17T15:29:11.961Z,38.03
2022-08-17T15:31:41.410Z,37.78
2022-08-17T15:34:10.770Z,40.17
2022-08-17T15:36:43.866Z,35.38
2022-08-17T15:39:19.667Z,38.10
2022-08-17T15:41:58.502Z,35.60
2022-08-17T15:44:32.483Z,38.47
2022-08-17T15:47:04.387Z,36.78
2022-08-17T15:49:33.841Z,36.17
2022-08-17T15:52:03.173Z,37.90
2022-08-17T15:54:34.756Z,31.65
2022-08-17T15:57:05.414Z,34.75
2022-08-17T15:59:34.890Z,35.97
2022-08-17T16:03:11.150Z,30.10
2022-08-17T16:04:53.884Z,36.78
2022-08-17T16:07:26.743Z,32.15
2022-08-17T16:09:56.337Z,35.80
2022-08-17T16:12:25.884Z,33.28
2022-08-17T16:14:55.859Z,32.33
2022-08-17T16:17:38.851Z,32.88
2022-08-17T16:20:19.621Z,34.45
2022-08-17T16:22:52.698Z,36.40
2022-08-17T16:25:52.270Z,32.75
2022-08-17T16:30:47.207Z,35.30
2022-08-17T16:33:16.848Z,33.90
2022-08-17T16:35:46.207Z,32.28
2022-08-17T16:38:15.573Z,35.53
2022-08-17T16:40:45.005Z,40.08
2022-08-17T16:43:17.392Z,35.33
2022-08-17T16:45:51.803Z,33.63
2022-08-17T16:48:21.581Z,33.90
2022-08-17T16:51:02.853Z,36.45
2022-08-17T16:53:33.185Z,32.80
2022-08-17T16:56:03.648Z,32.80
2022-08-17T16:58:33.002Z,36.17
2022-08-17T17:01:02.483Z,37.70
2022-08-17T17:03:33.596Z,30.85
2022-08-17T17:06:27.897Z,34.03
2022-08-17T17:09:04.421Z,32.53
2022-08-17T17:11:46.391Z,31.48
2022-08-17T17:14:25.409Z,34.08
2022-08-17T17:17:28.066Z,31.80
2022-08-17T17:20:21.726Z,35.95
2022-08-17T17:22:54.853Z,35.05
2022-08-17T17:25:41.051Z,32.28
2022-08-17T17:28:25.002Z,34.75
2022-08-17T17:30:54.370Z,36.08
2022-08-17T17:33:34.873Z,36.67
2022-08-17T17:36:24.373Z,36.83
2022-08-17T17:39:17.057Z,36.80
2022-08-17T17:41:51.575Z,39.03
2022-08-17T17:44:28.773Z,35.03
2022-08-17T17:47:01.955Z,38.08
2022-08-17T17:49:49.965Z,39.70
2022-08-17T17:52:32.407Z,39.70
2022-08-17T17:55:22.041Z,38.55
2022-08-17T17:58:05.501Z,40.28
2022-08-17T18:00:43.427Z,36.92
2022-08-17T18:03:25.185Z,37.33
2022-08-17T18:06:09.801Z,37.83
2022-08-17T18:09:06.244Z,41.60
2022-08-17T18:11:48.670Z,37.97
2022-08-17T18:14:28.805Z,37.63
2022-08-17T18:17:01.296Z,39.17
2022-08-17T18:19:33.276Z,38.88
2022-08-17T18:24:48.627Z,41.78
2022-08-17T18:27:21.009Z,42.58
2022-08-17T18:29:50.908Z,42.80
2022-08-17T18:32:26.544Z,38.88
2022-08-17T18:35:01.276Z,36.83
2022-08-17T18:37:38.856Z,35.95
2022-08-17T18:40:36.156Z,37.88
2022-08-17T18:43:14.071Z,41.97
2022-08-17T18:45:53.474Z,38.40
2022-08-17T18:48:25.534Z,38.53
2022-08-17T18:53:46.844Z,39.33
2022-08-17T18:56:35.767Z,36.65
2022-08-17T18:59:36.349Z,38.63
2022-08-17T19:05:27.787Z,38.88
2022-08-17T19:08:20.516Z,38.00
2022-08-17T19:10:58.406Z,42.45
2022-08-17T19:13:37.056Z,41.42
2022-08-17T19:16:24.394Z,40.27
2022-08-17T19:19:07.892Z,44.40
2022-08-17T19:21:45.371Z,41.25
2022-08-17T19:24:19.933Z,42.03
2022-08-17T19:26:57.791Z,40.08
2022-08-17T19:29:48.348Z,44.78
2022-08-17T19:32:27.452Z,42.10
2022-08-17T19:34:58.420Z,43.67
2022-08-17T19:37:56.508Z,40.28
2022-08-17T19:40:52.959Z,40.70
2022-08-17T19:43:48.124Z,43.10
2022-08-17T19:46:39.330Z,43.75
2022-08-17T19:49:46.709Z,38.67
2022-08-17T19:52:37.905Z,46.13
2022-08-17T19:55:36.127Z,40.28
2022-08-17T19:58:18.133Z,43.88
2022-08-17T20:03:30.253Z,43.63
2022-08-17T20:06:19.095Z,40.30
2022-08-17T20:09:18.688Z,38.95
2022-08-17T20:11:58.748Z,37.80
2022-08-17T20:14:39.312Z,42.38
2022-08-17T20:17:23.789Z,44.80
2022-08-17T20:19:58.359Z,42.13
2022-08-17T20:22:49.643Z,41.72
2022-08-17T20:25:50.600Z,42.45
2022-08-17T20:28:27.962Z,44.95
2022-08-17T20:30:57.977Z,47.35
2022-08-17T20:33:40.630Z,47.78
2022-08-17T20:36:26.235Z,43.33
2022-08-17T20:38:59.326Z,44.00
2022-08-17T20:41:31.019Z,41.80
2022-08-17T20:44:00.561Z,40.72
2022-08-17T20:46:47.468Z,43.42
2022-08-17T20:49:19.971Z,39.03
2022-08-17T20:52:01.264Z,38.72
2022-08-17T20:54:53.833Z,45.05
2022-08-17T20:57:35.376Z,41.55
2022-08-17T21:00:18.294Z,46.00
2022-08-17T21:03:22.766Z,44.47
2022-08-17T21:05:59.895Z,46.08
2022-08-17T21:08:43.762Z,45.30
2022-08-17T21:12:00.042Z,46.97
2022-08-17T21:14:48.131Z,45.05
2022-08-17T21:18:06.671Z,42.67
2022-08-17T21:21:07.073Z,44.97
2022-08-17T21:23:54.584Z,46.63
2022-08-17T21:26:35.555Z,46.35
2022-08-17T21:29:29.670Z,40.45
2022-08-17T21:32:06.582Z,44.47
2022-08-17T21:34:43.984Z,42.37
2022-08-17T21:37:23.380Z,43.22
2022-08-17T21:40:21.461Z,45.28
2022-08-17T21:42:55.779Z,42.67
2022-08-17T21:45:41.675Z,43.15
2022-08-17T21:48:21.618Z,41.10
2022-08-17T21:51:12.333Z,41.65
2022-08-17T21:53:48.256Z,44.15
2022-08-17T21:56:28.391Z,46.63
2022-08-17T21:59:24.525Z,41.47
2022-08-17T22:02:05.727Z,42.50
2022-08-17T22:04:43.525Z,48.20
2022-08-17T22:07:16.118Z,46.50
2022-08-17T22:09:48.823Z,45.15
2022-08-17T22:12:21.148Z,45.58
2022-08-17T22:14:56.421Z,41.67
2022-08-17T22:17:36.576Z,47.95
2022-08-17T22:20:17.617Z,41.58
2022-08-17T22:23:05.492Z,43.05
2022-08-17T22:26:00.178Z,48.42
2022-08-17T22:28:53.380Z,43.15
2022-08-17T22:31:32.923Z,43.55
2022-08-17T22:34:02.364Z,45.38
2022-08-17T22:36:33.644Z,44.92
2022-08-17T22:39:26.090Z,41.93
2022-08-17T22:44:48.022Z,46.55
2022-08-17T22:47:18.837Z,44.92
2022-08-17T22:49:57.828Z,49.00
2022-08-17T22:53:00.029Z,50.40
2022-08-17T22:55:44.664Z,51.15
2022-08-17T22:58:29.540Z,47.03
2022-08-17T23:01:00.136Z,43.78
2022-08-17T23:03:30.287Z,49.15
2022-08-17T23:06:12.510Z,48.80
2022-08-17T23:08:48.873Z,43.60
2022-08-17T23:11:18.766Z,42.50
2022-08-17T23:13:48.480Z,48.20
2022-08-17T23:16:17.924Z,48.00
2022-08-17T23:18:50.876Z,48.40
2022-08-17T23:21:27.412Z,49.97
2022-08-17T23:23:58.451Z,48.45
2022-08-17T23:26:27.882Z,51.88
2022-08-17T23:28:57.324Z,49.90
2022-08-17T23:31:26.928Z,44.90
2022-08-17T23:33:57.752Z,47.38
2022-08-17T23:36:27.168Z,46.03
2022-08-17T23:38:57.900Z,53.03
2022-08-17T23:41:31.901Z,44.30
2022-08-17T23:44:03.023Z,47.65
2022-08-17T23:46:32.887Z,52.35
2022-08-17T23:49:03.304Z,52.35
2022-08-17T23:51:42.617Z,47.85
2022-08-17T23:54:34.124Z,47.28
2022-08-17T23:57:09.208Z,49.92
2022-08-17T23:59:39.610Z,48.30
